createdAt,value
2022-07-27T00:01:27.728Z,26.00
2022-07-27T00:04:50.872Z,26.00
2022-07-27T00:08:14.030Z,26.00
2022-07-27T00:11:38.487Z,26.00
2022-07-27T00:15:01.672Z,25.90
2022-07-27T00:18:24.750Z,25.90
2022-07-27T00:21:47.813Z,25.90
2022-07-27T00:25:11.300Z,25.90
2022-07-27T00:28:35.778Z,25.90
2022-07-27T00:31:58.914Z,25.90
2022-07-27T00:35:22.666Z,25.90
2022-07-27T00:38:45.704Z,25.80
2022-07-27T00:42:08.916Z,25.80
2022-07-27T00:45:33.556Z,25.80
2022-07-27T00:48:56.851Z,25.80
2022-07-27T00:52:22.370Z,25.80
2022-07-27T00:55:45.861Z,25.80
2022-07-27T00:59:11.631Z,25.80
2022-07-27T01:02:37.295Z,25.80
2022-07-27T01:06:03.569Z,25.80
2022-07-27T01:09:44.980Z,25.70
2022-07-27T01:13:12.911Z,25.70
2022-07-27T01:16:36.388Z,25.70
2022-07-27T01:20:01.267Z,25.70
2022-07-27T01:23:26.140Z,25.70
2022-07-27T01:26:49.658Z,25.70
2022-07-27T01:30:30.283Z,25.60
2022-07-27T01:33:53.451Z,25.60
2022-07-27T01:37:16.492Z,25.60
2022-07-27T01:40:40.934Z,25.60
2022-07-27T01:44:04.026Z,25.60
2022-07-27T01:47:27.494Z,25.60
2022-07-27T01:50:50.972Z,25.60
2022-07-27T01:54:14.017Z,25.60
2022-07-27T01:57:39.475Z,25.60
2022-07-27T02:01:02.506Z,25.60
2022-07-27T02:04:25.526Z,25.60
2022-07-27T02:07:48.562Z,25.50
2022-07-27T02:11:29.167Z,25.50
2022-07-27T02:14:53.710Z,25.50
2022-07-27T02:18:33.772Z,25.50
2022-07-27T02:22:00.005Z,25.50
2022-07-27T02:25:23.422Z,25.50
2022-07-27T02:28:46.615Z,25.40
2022-07-27T02:32:11.005Z,25.40
2022-07-27T02:35:34.022Z,25.40
2022-07-27T02:38:57.145Z,25.40
2022-07-27T02:42:20.826Z,25.40
2022-07-27T02:45:43.841Z,25.40
2022-07-27T02:49:11.380Z,25.40
2022-07-27T02:52:34.918Z,25.40
2022-07-27T02:55:58.382Z,25.40
2022-07-27T02:59:22.134Z,25.30
2022-07-27T03:02:49.811Z,25.30
2022-07-27T03:06:14.425Z,25.30
2022-07-27T03:09:37.582Z,25.30
2022-07-27T03:13:00.662Z,25.30
2022-07-27T03:16:23.768Z,25.30
2022-07-27T03:19:48.163Z,25.30
2022-07-27T03:23:12.604Z,25.20
2022-07-27T03:26:35.654Z,25.20
2022-07-27T03:29:58.685Z,25.20
2022-07-27T03:33:21.775Z,25.20
2022-07-27T03:36:44.920Z,25.20
2022-07-27T03:40:11.383Z,25.20
2022-07-27T03:43:34.817Z,25.20
2022-07-27T03:46:57.871Z,25.20
2022-07-27T03:50:21.030Z,25.20
2022-07-27T03:53:44.042Z,25.20
2022-07-27T03:57:08.495Z,25.10
2022-07-27T04:00:31.497Z,25.10
2022-07-27T04:03:54.530Z,25.10
2022-07-27T04:07:17.655Z,25.10
2022-07-27T04:10:40.726Z,25.10
2022-07-27T04:14:06.544Z,25.10
2022-07-27T04:17:55.465Z,25.10
2022-07-27T04:21:13.373Z,25.10
2022-07-27T04:24:36.418Z,25.00
2022-07-27T04:27:59.454Z,25.00
2022-07-27T04:31:24.004Z,25.00
2022-07-27T04:34:47.229Z,25.00
2022-07-27T04:38:10.292Z,25.00
2022-07-27T04:41:33.322Z,25.00
2022-07-27T04:44:56.419Z,25.00
2022-07-27T04:48:20.819Z,25.00
2022-07-27T04:51:45.546Z,25.00
2022-07-27T04:55:09.214Z,25.00
2022-07-27T04:58:32.350Z,24.90
2022-07-27T05:01:55.581Z,25.00
2022-07-27T05:05:20.114Z,24.90
2022-07-27T05:08:43.180Z,24.90
2022-07-27T05:12:06.482Z,25.00
2022-07-27T05:15:29.516Z,24.90
2022-07-27T05:19:13.039Z,24.90
2022-07-27T05:22:40.021Z,24.90
2022-07-27T05:26:03.718Z,24.90
2022-07-27T05:29:26.863Z,24.90
2022-07-27T05:32:49.883Z,24.90
2022-07-27T05:36:13.303Z,24.90
2022-07-27T05:39:37.672Z,24.90
2022-07-27T05:43:00.806Z,24.80
2022-07-27T05:46:24.929Z,24.80
2022-07-27T05:49:49.559Z,24.90
2022-07-27T05:53:13.911Z,24.80
2022-07-27T05:56:38.593Z,24.80
2022-07-27T06:00:01.649Z,24.90
2022-07-27T06:03:34.683Z,24.90
2022-07-27T06:07:15.347Z,24.90
2022-07-27T06:10:40.682Z,24.90
2022-07-27T06:14:05.065Z,24.90
2022-07-27T06:17:28.151Z,24.80
2022-07-27T06:20:51.203Z,24.80
2022-07-27T06:24:14.576Z,24.80
2022-07-27T06:27:38.043Z,24.80
2022-07-27T06:31:02.717Z,24.80
2022-07-27T06:34:26.029Z,24.80
2022-07-27T06:37:52.786Z,24.90
2022-07-27T06:41:16.393Z,24.80
2022-07-27T06:44:39.453Z,24.80
2022-07-27T06:48:03.901Z,24.80
2022-07-27T06:51:26.934Z,24.90
2022-07-27T06:54:49.963Z,24.80
2022-07-27T06:58:13.067Z,24.90
2022-07-27T07:01:36.118Z,24.90
2022-07-27T07:05:00.522Z,24.90
2022-07-27T07:08:23.586Z,24.90
2022-07-27T07:11:47.285Z,24.90
2022-07-27T07:15:12.958Z,24.90
2022-07-27T07:18:36.077Z,24.90
2022-07-27T07:22:00.467Z,24.90
2022-07-27T07:25:23.629Z,24.90
2022-07-27T07:28:46.647Z,24.90
2022-07-27T07:32:09.633Z,24.90
2022-07-27T07:35:32.694Z,24.80
2022-07-27T07:38:57.126Z,24.80
2022-07-27T07:42:20.531Z,24.80
2022-07-27T07:45:49.976Z,24.80
2022-07-27T07:49:14.687Z,24.80
2022-07-27T07:52:38.171Z,24.90
2022-07-27T07:56:02.856Z,24.80
2022-07-27T07:59:25.915Z,24.80
2022-07-27T08:02:51.133Z,24.80
2022-07-27T08:06:14.335Z,24.90
2022-07-27T08:09:37.422Z,24.90
2022-07-27T08:13:02.034Z,24.90
2022-07-27T08:16:25.176Z,24.90
2022-07-27T08:19:48.330Z,24.90
2022-07-27T08:23:13.053Z,24.90
2022-07-27T08:26:36.069Z,24.90
2022-07-27T08:30:00.501Z,24.90
2022-07-27T08:33:25.694Z,24.90
2022-07-27T08:36:48.753Z,25.00
2022-07-27T08:40:39.585Z,25.00
2022-07-27T08:43:57.467Z,25.00
2022-07-27T08:47:23.047Z,25.00
2022-07-27T08:50:49.976Z,25.00
2022-07-27T08:54:13.254Z,25.00
2022-07-27T08:57:36.232Z,25.00
2022-07-27T09:00:59.313Z,25.00
2022-07-27T09:04:24.007Z,25.00
2022-07-27T09:07:47.228Z,25.00
2022-07-27T09:11:15.503Z,25.00
2022-07-27T09:14:40.772Z,25.00
2022-07-27T09:18:18.530Z,25.00
2022-07-27T09:21:44.208Z,25.00
2022-07-27T09:25:08.592Z,25.00
2022-07-27T09:28:32.018Z,25.00
2022-07-27T09:31:55.043Z,25.10
2022-07-27T09:35:20.837Z,25.10
2022-07-27T09:39:00.172Z,25.10
2022-07-27T09:43:05.783Z,25.10
2022-07-27T09:46:08.723Z,25.10
2022-07-27T09:49:33.732Z,25.10
2022-07-27T09:53:41.769Z,25.10
2022-07-27T09:57:05.307Z,25.10
2022-07-27T10:00:28.384Z,25.20
2022-07-27T10:03:53.042Z,25.20
2022-07-27T10:07:16.262Z,25.20
2022-07-27T10:10:40.706Z,25.20
2022-07-27T10:14:05.679Z,25.20
2022-07-27T10:17:29.397Z,25.20
2022-07-27T10:20:53.062Z,25.20
2022-07-27T10:24:26.974Z,25.60
2022-07-27T10:28:09.620Z,25.20
2022-07-27T10:31:37.608Z,25.20
2022-07-27T10:35:01.174Z,25.30
2022-07-27T10:38:24.298Z,25.30
2022-07-27T10:41:47.389Z,25.30
2022-07-27T10:45:12.347Z,25.30
2022-07-27T10:48:40.527Z,25.30
2022-07-27T10:52:07.822Z,25.30
2022-07-27T10:55:50.431Z,25.30
2022-07-27T10:59:13.501Z,25.30
2022-07-27T11:02:40.675Z,25.40
2022-07-27T11:06:31.482Z,25.40
2022-07-27T11:10:09.189Z,25.40
2022-07-27T11:13:38.803Z,25.40
2022-07-27T11:17:47.379Z,25.40
2022-07-27T11:20:49.955Z,25.40
2022-07-27T11:24:18.315Z,25.40
2022-07-27T11:27:48.141Z,25.40
2022-07-27T11:31:17.198Z,25.40
2022-07-27T11:34:47.020Z,25.40
2022-07-27T11:38:10.089Z,25.40
2022-07-27T11:42:08.137Z,25.50
2022-07-27T11:45:29.905Z,25.50
2022-07-27T11:49:12.062Z,25.50
2022-07-27T11:52:35.574Z,25.50
2022-07-27T11:55:58.738Z,25.50
2022-07-27T11:59:23.793Z,25.50
2022-07-27T12:02:50.092Z,25.60
2022-07-27T12:06:13.332Z,25.60
2022-07-27T12:09:39.133Z,25.60
2022-07-27T12:13:02.211Z,25.60
2022-07-27T12:16:26.652Z,25.60
2022-07-27T12:19:58.677Z,25.60
2022-07-27T12:23:30.571Z,25.60
2022-07-27T12:27:06.531Z,25.70
2022-07-27T12:30:32.421Z,25.70
2022-07-27T12:34:05.733Z,25.70
2022-07-27T12:37:31.450Z,25.70
2022-07-27T12:41:00.834Z,25.70
2022-07-27T12:44:35.779Z,25.70
2022-07-27T12:48:06.661Z,25.80
2022-07-27T12:51:31.074Z,25.80
2022-07-27T12:54:54.162Z,25.80
2022-07-27T12:58:17.240Z,25.80
2022-07-27T13:01:40.324Z,25.80
2022-07-27T13:05:03.493Z,25.80
2022-07-27T13:08:27.912Z,25.80
2022-07-27T13:11:50.996Z,25.90
2022-07-27T13:15:15.067Z,25.90
2022-07-27T13:18:38.090Z,25.90
2022-07-27T13:22:01.279Z,25.90
2022-07-27T13:25:25.677Z,25.90
2022-07-27T13:28:49.442Z,25.90
2022-07-27T13:32:14.546Z,25.90
2022-07-27T13:35:42.519Z,26.00
2022-07-27T13:39:05.559Z,26.00
2022-07-27T13:42:29.983Z,26.00
2022-07-27T13:45:53.059Z,26.00
2022-07-27T13:49:17.792Z,26.00
2022-07-27T13:52:41.096Z,26.10
2022-07-27T13:56:04.413Z,26.10
2022-07-27T13:59:28.854Z,26.10
2022-07-27T14:02:53.052Z,26.10
2022-07-27T14:06:17.201Z,26.10
2022-07-27T14:09:57.433Z,26.10
2022-07-27T14:13:22.164Z,26.10
2022-07-27T14:16:46.876Z,26.20
2022-07-27T14:20:11.617Z,26.20
2022-07-27T14:23:35.762Z,26.20
2022-07-27T14:26:59.247Z,26.20
2022-07-27T14:30:22.346Z,26.20
2022-07-27T14:33:46.876Z,26.20
2022-07-27T14:37:09.918Z,26.20
2022-07-27T14:40:33.009Z,26.30
2022-07-27T14:43:56.000Z,26.30
2022-07-27T14:47:19.424Z,26.30
2022-07-27T14:50:44.575Z,26.30
2022-07-27T14:54:07.678Z,26.30
2022-07-27T14:57:30.730Z,26.30
2022-07-27T15:00:53.777Z,26.30
2022-07-27T15:04:16.846Z,26.30
2022-07-27T15:07:41.498Z,26.40
2022-07-27T15:11:04.570Z,26.40
2022-07-27T15:14:28.204Z,26.40
2022-07-27T15:17:51.247Z,26.40
2022-07-27T15:21:14.301Z,26.40
2022-07-27T15:24:38.761Z,26.40
2022-07-27T15:28:01.790Z,26.40
2022-07-27T15:31:25.924Z,26.40
2022-07-27T15:34:49.002Z,26.50
2022-07-27T15:38:12.047Z,26.50
2022-07-27T15:41:37.126Z,26.50
2022-07-27T15:45:00.099Z,26.50
2022-07-27T15:48:26.062Z,26.50
2022-07-27T15:51:49.089Z,26.60
2022-07-27T15:55:15.259Z,26.60
2022-07-27T15:58:39.623Z,26.60
2022-07-27T16:02:02.656Z,26.60
2022-07-27T16:05:27.012Z,26.60
2022-07-27T16:08:50.101Z,26.60
2022-07-27T16:12:14.926Z,26.60
2022-07-27T16:15:58.498Z,26.60
2022-07-27T16:19:21.585Z,26.60
2022-07-27T16:22:44.718Z,26.60
2022-07-27T16:26:08.445Z,26.70
2022-07-27T16:29:31.659Z,26.70
2022-07-27T16:32:56.087Z,26.70
2022-07-27T16:36:20.033Z,26.70
2022-07-27T16:39:46.008Z,26.70
2022-07-27T16:43:09.081Z,26.70
2022-07-27T16:46:32.215Z,26.70
2022-07-27T16:49:56.806Z,26.70
2022-07-27T16:53:19.811Z,26.70
2022-07-27T16:56:42.854Z,26.80
2022-07-27T17:00:07.990Z,26.80
2022-07-27T17:03:31.077Z,26.80
2022-07-27T17:06:55.625Z,26.80
2022-07-27T17:10:26.829Z,26.80
2022-07-27T17:13:51.190Z,26.80
2022-07-27T17:17:22.357Z,26.80
2022-07-27T17:20:45.459Z,26.80
2022-07-27T17:24:10.602Z,26.80
2022-07-27T17:27:34.884Z,26.80
2022-07-27T17:30:59.765Z,26.80
2022-07-27T17:34:22.898Z,26.80
2022-07-27T17:38:05.105Z,26.80
2022-07-27T17:41:32.029Z,26.80
2022-07-27T17:44:55.030Z,26.80
2022-07-27T17:48:18.080Z,26.80
2022-07-27T17:51:41.059Z,26.90
2022-07-27T17:55:04.598Z,26.80
2022-07-27T17:58:30.506Z,26.80
2022-07-27T18:01:53.914Z,26.90
2022-07-27T18:05:17.041Z,26.90
2022-07-27T18:08:40.083Z,26.90
2022-07-27T18:12:03.115Z,26.90
2022-07-27T18:15:45.030Z,26.90
2022-07-27T18:19:08.135Z,26.90
2022-07-27T18:22:34.166Z,26.90
2022-07-27T18:26:01.132Z,26.90
2022-07-27T18:29:24.123Z,26.90
2022-07-27T18:32:48.517Z,26.90
2022-07-27T18:36:11.506Z,26.90
2022-07-27T18:39:34.526Z,26.90
2022-07-27T18:42:57.532Z,26.90
2022-07-27T18:46:21.076Z,26.90
2022-07-27T18:49:45.553Z,26.90
2022-07-27T18:53:09.899Z,26.90
2022-07-27T18:56:32.918Z,26.90
2022-07-27T18:59:55.959Z,26.90
2022-07-27T19:03:19.090Z,26.90
2022-07-27T19:06:45.415Z,26.90
2022-07-27T19:10:10.467Z,26.90
2022-07-27T19:13:33.487Z,26.80
2022-07-27T19:16:56.595Z,26.90
2022-07-27T19:20:19.693Z,26.80
2022-07-27T19:23:44.123Z,26.80
2022-07-27T19:27:07.477Z,26.80
2022-07-27T19:30:30.650Z,26.80
2022-07-27T19:33:53.882Z,26.80
2022-07-27T19:37:16.968Z,26.80
2022-07-27T19:40:44.693Z,26.80
2022-07-27T19:44:09.162Z,26.80
2022-07-27T19:47:32.364Z,26.80
2022-07-27T19:50:57.287Z,26.80
2022-07-27T19:54:20.410Z,27.20
2022-07-27T19:57:44.815Z,26.80
2022-07-27T20:01:09.583Z,26.80
2022-07-27T20:04:34.715Z,26.80
2022-07-27T20:08:00.266Z,26.80
2022-07-27T20:11:23.338Z,26.80
2022-07-27T20:14:47.753Z,26.70
2022-07-27T20:18:10.854Z,26.70
2022-07-27T20:21:36.470Z,26.70
2022-07-27T20:24:59.553Z,26.70
2022-07-27T20:28:22.592Z,26.70
2022-07-27T20:31:47.060Z,26.70
2022-07-27T20:35:10.215Z,26.70
2022-07-27T20:38:33.259Z,26.70
2022-07-27T20:41:56.310Z,26.70
2022-07-27T20:45:19.367Z,26.70
2022-07-27T20:48:43.906Z,26.60
2022-07-27T20:52:07.557Z,26.60
2022-07-27T20:55:31.014Z,26.60
2022-07-27T20:58:54.078Z,26.60
2022-07-27T21:02:17.157Z,26.60
2022-07-27T21:05:41.566Z,26.60
2022-07-27T21:09:04.776Z,26.60
2022-07-27T21:12:27.980Z,26.60
2022-07-27T21:15:51.128Z,26.60
2022-07-27T21:19:14.439Z,26.60
2022-07-27T21:22:39.205Z,26.60
2022-07-27T21:26:02.361Z,26.50
2022-07-27T21:29:25.971Z,26.50
2022-07-27T21:32:49.051Z,26.50
2022-07-27T21:36:12.142Z,26.50
2022-07-27T21:39:36.576Z,26.50
2022-07-27T21:43:00.834Z,26.50
2022-07-27T21:46:23.966Z,26.40
2022-07-27T21:49:47.074Z,26.00
2022-07-27T21:53:10.149Z,26.40
2022-07-27T21:56:41.968Z,26.40
2022-07-27T22:00:07.518Z,26.40
2022-07-27T22:03:30.644Z,26.30
2022-07-27T22:06:53.802Z,26.40
2022-07-27T22:10:16.864Z,26.30
2022-07-27T22:13:41.482Z,26.30
2022-07-27T22:17:04.826Z,26.30
2022-07-27T22:20:27.998Z,26.30
2022-07-27T22:23:51.071Z,26.20
2022-07-27T22:27:14.077Z,26.20
2022-07-27T22:30:40.051Z,26.20
2022-07-27T22:34:03.119Z,26.20
2022-07-27T22:37:26.150Z,26.20
2022-07-27T22:40:49.181Z,26.10
2022-07-27T22:44:13.002Z,26.10
2022-07-27T22:47:40.318Z,26.00
2022-07-27T22:51:03.419Z,26.00
2022-07-27T22:54:26.495Z,26.10
2022-07-27T22:57:49.511Z,26.00
2022-07-27T23:01:36.169Z,26.00
2022-07-27T23:04:57.216Z,26.00
2022-07-27T23:08:20.301Z,25.90
2022-07-27T23:11:44.174Z,26.00
2022-07-27T23:15:07.924Z,25.90
2022-07-27T23:18:30.950Z,25.90
2022-07-27T23:21:59.209Z,25.90
2022-07-27T23:25:24.802Z,25.90
2022-07-27T23:28:59.169Z,25.80
2022-07-27T23:32:22.211Z,25.80
2022-07-27T23:35:45.322Z,25.80
2022-07-27T23:39:09.673Z,25.80
2022-07-27T23:42:34.974Z,25.80
2022-07-27T23:45:58.008Z,25.80
2022-07-27T23:49:21.143Z,25.80
2022-07-27T23:52:44.282Z,25.70
2022-07-27T23:56:08.665Z,25.70
2022-07-27T23:59:31.741Z,25.70
